createdAt,value
2019-06-20T06:14:42.458Z,70.40
2019-06-20T06:17:09.369Z,71.20
2019-06-20T06:19:51.986Z,69.90
2019-06-20T06:22:18.918Z,69.70
2019-06-20T06:24:46.661Z,68.50
2019-06-20T06:27:14.254Z,69.50
2019-06-20T06:29:41.311Z,69.50
2019-06-20T06:35:19.239Z,68.40
2019-06-20T06:37:46.935Z,64.40
2019-06-20T06:40:14.570Z,61.20
2019-06-20T06:42:41.394Z,61.30
2019-06-20T06:45:08.233Z,63.60
2019-06-20T06:47:34.982Z,61.40
2019-06-20T06:50:01.845Z,63.10
2019-06-20T06:52:28.618Z,63.00
2019-06-20T06:54:55.388Z,59.20
2019-06-20T06:57:23.236Z,60.70
2019-06-20T06:59:49.985Z,60.70
2019-06-20T07:02:17.573Z,62.20
2019-06-20T07:04:45.055Z,59.90
2019-06-20T07:07:11.775Z,59.70
2019-06-20T07:09:39.446Z,58.70
2019-06-20T07:12:06.905Z,58.60
2019-06-20T07:14:33.617Z,58.70
2019-06-20T07:17:00.883Z,61.60
2019-06-20T07:19:27.935Z,59.50
2019-06-20T07:21:54.701Z,59.60
2019-06-20T07:24:21.435Z,58.70
2019-06-20T07:26:48.142Z,58.90
2019-06-20T07:29:15.581Z,58.90
2019-06-20T07:31:42.331Z,59.00
2019-06-20T07:34:09.062Z,59.40
2019-06-20T07:36:35.809Z,60.40
2019-06-20T07:39:02.661Z,60.50
2019-06-20T07:41:29.350Z,58.10
2019-06-20T07:43:56.065Z,58.70
2019-06-20T07:46:22.918Z,60.60
2019-06-20T07:48:49.637Z,59.70
2019-06-20T07:51:17.117Z,61.20
2019-06-20T07:53:43.848Z,61.20
2019-06-20T07:56:17.424Z,62.40
2019-06-20T07:58:44.885Z,64.10
2019-06-20T08:01:12.345Z,63.90
2019-06-20T08:03:39.168Z,63.70
2019-06-20T08:06:05.880Z,65.00
2019-06-20T08:08:32.597Z,65.00
2019-06-20T08:10:59.393Z,64.40
2019-06-20T08:13:26.177Z,62.10
2019-06-20T08:15:53.709Z,63.10
2019-06-20T08:18:21.258Z,61.50
2019-06-20T08:20:48.092Z,61.50
2019-06-20T08:23:14.915Z,62.20
2019-06-20T08:25:41.797Z,63.60
2019-06-20T08:28:09.632Z,63.50
2019-06-20T08:30:36.452Z,63.10
2019-06-20T08:33:08.837Z,61.70
2019-06-20T08:35:31.345Z,68.20
2019-06-20T08:37:59.313Z,68.10
2019-06-20T08:40:25.055Z,66.40
2019-06-20T08:42:52.831Z,65.70
2019-06-20T08:45:20.793Z,69.40
2019-06-20T08:48:02.780Z,69.40
2019-06-20T08:50:29.506Z,74.10
2019-06-20T08:52:57.652Z,69.70
2019-06-20T08:55:23.114Z,69.50
2019-06-20T08:57:49.869Z,72.00
2019-06-20T09:00:16.688Z,71.40
2019-06-20T09:02:43.471Z,74.80
2019-06-20T09:05:10.234Z,73.70
2019-06-20T09:07:41.578Z,75.20
2019-06-20T09:10:05.313Z,75.10
2019-06-20T09:12:32.104Z,77.80
2019-06-20T09:14:59.218Z,77.10
2019-06-20T09:17:25.642Z,75.50
2019-06-20T09:19:52.899Z,77.10
2019-06-20T09:22:19.338Z,78.60
2019-06-20T09:24:46.810Z,78.90
2019-06-20T09:27:14.306Z,79.20
2019-06-20T09:29:41.919Z,79.20
2019-06-20T09:32:07.849Z,80.50
2019-06-20T09:34:35.328Z,85.10
2019-06-20T09:37:02.139Z,85.00
2019-06-20T09:39:29.619Z,84.40
2019-06-20T09:41:58.851Z,78.30
2019-06-20T09:44:24.571Z,78.30
2019-06-20T09:46:52.444Z,83.50
2019-06-20T09:49:18.322Z,83.70
2019-06-20T09:51:45.847Z,84.50
2019-06-20T09:54:12.924Z,84.50
2019-06-20T09:56:39.806Z,83.40
2019-06-20T09:59:06.559Z,81.40
2019-06-20T10:01:33.291Z,80.00
2019-06-20T10:04:00.018Z,83.10
2019-06-20T10:06:26.751Z,83.40
2019-06-20T10:08:54.391Z,82.00
2019-06-20T10:11:21.820Z,80.60
2019-06-20T10:13:48.911Z,80.60
2019-06-20T10:16:15.733Z,79.50
2019-06-20T10:18:43.283Z,81.30
2019-06-20T10:21:09.994Z,81.20
2019-06-20T10:23:36.880Z,84.50
2019-06-20T10:26:04.371Z,84.70
2019-06-20T10:28:31.180Z,84.40
2019-06-20T10:30:58.686Z,85.00
2019-06-20T10:33:26.023Z,85.00
2019-06-20T10:35:52.935Z,84.40
2019-06-20T10:38:20.531Z,85.40
2019-06-20T10:40:48.014Z,85.40
2019-06-20T10:43:14.777Z,84.40
2019-06-20T10:45:44.081Z,85.50
2019-06-20T10:48:08.515Z,84.40
2019-06-20T10:50:35.311Z,86.20
2019-06-20T10:53:02.838Z,88.40
2019-06-20T10:55:29.945Z,88.40
2019-06-20T10:57:56.810Z,87.60
2019-06-20T11:00:30.950Z,88.40
2019-06-20T11:02:51.334Z,88.80
2019-06-20T11:05:18.160Z,88.80
2019-06-20T11:10:18.637Z,89.30
2019-06-20T11:12:50.210Z,90.30
2019-06-20T11:15:13.127Z,89.80
2019-06-20T11:17:40.343Z,90.00
2019-06-20T11:20:06.997Z,89.50
2019-06-20T11:22:33.859Z,90.80
2019-06-20T11:25:01.490Z,89.10
2019-06-20T11:27:28.536Z,89.20
2019-06-20T11:29:55.382Z,86.60
2019-06-20T11:32:22.340Z,85.50
2019-06-20T11:34:49.460Z,83.50
2019-06-20T11:37:16.283Z,85.70
2019-06-20T11:39:43.289Z,88.40
2019-06-20T11:42:10.076Z,89.10
2019-06-20T11:44:37.076Z,88.40
2019-06-20T11:47:03.837Z,86.30
2019-06-20T11:49:30.588Z,83.90
2019-06-20T11:51:58.022Z,85.70
2019-06-20T11:54:25.388Z,85.70
2019-06-20T11:56:52.140Z,82.30
2019-06-20T11:59:18.902Z,83.20
2019-06-20T12:01:47.151Z,85.90
2019-06-20T12:04:13.308Z,84.80
2019-06-20T12:06:41.528Z,85.20
2019-06-20T12:09:07.707Z,85.20
2019-06-20T12:11:35.372Z,84.00
2019-06-20T12:14:02.235Z,84.10
2019-06-20T12:16:29.021Z,83.30
2019-06-20T12:18:55.774Z,85.60
2019-06-20T12:21:22.532Z,85.50
2019-06-20T12:23:49.354Z,87.70
2019-06-20T12:26:16.097Z,88.00
2019-06-20T12:28:44.706Z,87.10
2019-06-20T12:31:19.652Z,88.80
2019-06-20T12:33:39.594Z,86.60
2019-06-20T12:36:05.671Z,86.70
2019-06-20T12:38:33.166Z,89.00
2019-06-20T12:40:59.920Z,89.00
2019-06-20T12:43:26.689Z,88.70
2019-06-20T12:45:53.394Z,86.30
2019-06-20T12:48:20.342Z,87.00
2019-06-20T12:50:47.603Z,88.10
2019-06-20T12:53:14.132Z,88.40
2019-06-20T12:55:42.352Z,88.70
2019-06-20T12:58:07.721Z,90.10
2019-06-20T13:00:34.496Z,90.50
2019-06-20T13:03:02.014Z,90.30
2019-06-20T13:05:28.813Z,90.30
2019-06-20T13:07:55.661Z,90.20
2019-06-20T13:10:22.561Z,90.70
2019-06-20T13:12:49.332Z,90.10
2019-06-20T13:15:16.849Z,91.10
2019-06-20T13:17:44.838Z,90.70
2019-06-20T13:20:11.288Z,91.30
2019-06-20T13:22:39.577Z,91.30
2019-06-20T13:25:05.790Z,91.10
2019-06-20T13:27:33.312Z,91.40
2019-06-20T13:30:00.129Z,91.40
2019-06-20T13:32:26.929Z,90.30
2019-06-20T13:34:53.748Z,90.90
2019-06-20T13:37:20.564Z,91.40
2019-06-20T13:39:47.446Z,91.40
2019-06-20T13:42:14.278Z,91.50
2019-06-20T13:44:41.416Z,91.70
2019-06-20T13:47:07.846Z,92.20
2019-06-20T13:49:34.684Z,91.80
2019-06-20T13:52:01.379Z,92.00
2019-06-20T13:54:28.806Z,92.20
2019-06-20T15:57:17.162Z,99.90
2019-06-20T15:59:44.801Z,99.90
2019-06-20T16:02:12.947Z,99.90
2019-06-20T16:04:39.689Z,99.90
2019-06-20T16:07:06.526Z,99.90
2019-06-20T16:09:33.391Z,99.90
2019-06-20T16:12:00.696Z,99.90
2019-06-20T16:14:28.098Z,99.90
2019-06-20T16:16:55.637Z,99.90
2019-06-20T16:19:22.496Z,99.90
2019-06-20T16:21:50.061Z,99.90
2019-06-20T16:24:16.941Z,99.90
2019-06-20T16:26:43.631Z,99.90
2019-06-20T16:29:11.201Z,99.90
2019-06-20T16:31:38.804Z,99.90
2019-06-20T16:34:05.592Z,99.90
2019-06-20T16:36:32.358Z,99.90
2019-06-20T16:38:59.079Z,99.90
2019-06-20T16:41:25.907Z,99.90
2019-06-20T16:43:52.816Z,99.90
2019-06-20T16:46:19.544Z,99.90
2019-06-20T16:48:46.990Z,99.90
2019-06-20T16:51:14.486Z,99.90
2019-06-20T16:53:41.230Z,99.90
2019-06-20T16:56:07.960Z,99.90
2019-06-20T16:58:34.699Z,99.90
2019-06-20T17:01:01.611Z,99.90
2019-06-20T17:03:41.388Z,99.90
2019-06-20T17:05:55.908Z,99.90
2019-06-20T17:08:22.598Z,99.90
2019-06-20T17:10:49.277Z,99.90
2019-06-20T17:13:16.082Z,99.90
2019-06-20T17:15:42.814Z,99.90
2019-06-20T17:18:09.545Z,99.90
2019-06-20T17:20:36.346Z,99.90
2019-06-20T17:23:03.083Z,99.90
2019-06-20T17:25:29.799Z,99.90
2019-06-20T17:27:57.273Z,99.90
2019-06-20T17:30:23.960Z,99.90
2019-06-20T17:32:51.435Z,99.90
2019-06-20T17:35:18.188Z,99.90
2019-06-20T17:37:45.203Z,99.90
2019-06-20T17:40:11.821Z,99.90
2019-06-20T17:42:39.319Z,99.90
2019-06-20T17:45:06.083Z,99.90
2019-06-20T17:47:32.918Z,99.90
2019-06-20T17:49:59.747Z,99.90
2019-06-20T17:52:26.518Z,99.90
2019-06-20T17:54:53.261Z,99.90
2019-06-20T17:57:19.984Z,99.90
2019-06-20T17:59:46.696Z,99.90
2019-06-20T18:02:14.288Z,99.90
2019-06-20T18:04:41.000Z,99.90
2019-06-20T18:07:07.715Z,99.90
2019-06-20T18:09:35.314Z,99.90
2019-06-20T18:12:02.014Z,99.90
2019-06-20T18:14:29.502Z,99.90
2019-06-20T18:16:56.229Z,99.90
2019-06-20T18:19:23.685Z,99.90
2019-06-20T18:21:51.257Z,99.90
2019-06-20T18:24:17.972Z,99.90
2019-06-20T18:26:45.416Z,99.90
2019-06-20T18:29:12.959Z,99.90
2019-06-20T18:31:42.366Z,99.90
2019-06-20T18:34:07.184Z,99.90
2019-06-20T18:36:34.656Z,99.90
2019-06-20T18:39:01.420Z,99.90
2019-06-20T18:41:28.123Z,99.90
2019-06-20T18:43:55.545Z,99.90
2019-06-20T18:46:23.079Z,99.90
2019-06-20T18:48:49.825Z,99.90
2019-06-20T18:51:16.578Z,99.90
2019-06-20T18:53:43.374Z,99.90
2019-06-20T18:56:10.875Z,99.90
2019-06-20T18:58:37.550Z,99.90
2019-06-20T19:01:04.414Z,99.90
2019-06-20T19:03:31.947Z,99.90
2019-06-20T19:05:58.723Z,99.90
2019-06-20T19:08:25.480Z,99.90
2019-06-20T19:10:52.225Z,99.90
2019-06-20T19:13:18.979Z,99.90
2019-06-20T19:15:45.996Z,99.90
2019-06-20T19:18:12.766Z,99.90
2019-06-20T19:20:39.585Z,99.90
2019-06-20T19:23:06.386Z,99.90
2019-06-20T19:25:33.126Z,99.90
2019-06-20T19:27:59.830Z,99.90
2019-06-20T19:30:34.554Z,99.90
2019-06-20T19:33:01.322Z,99.90
2019-06-20T19:35:28.090Z,99.90
2019-06-20T19:37:55.553Z,99.90
2019-06-20T19:40:23.057Z,99.90
2019-06-20T19:42:49.805Z,99.90
2019-06-20T19:45:16.803Z,99.90
2019-06-20T19:47:43.576Z,99.90
2019-06-20T19:50:10.397Z,99.90
2019-06-20T19:52:37.164Z,99.90
2019-06-20T19:55:04.801Z,99.90
2019-06-20T19:57:31.539Z,99.90
2019-06-20T19:59:59.032Z,99.90
2019-06-20T20:02:25.772Z,99.90
2019-06-20T20:04:53.324Z,99.90
2019-06-20T20:07:20.164Z,99.90
2019-06-20T20:12:44.025Z,99.90
2019-06-20T20:15:10.848Z,99.90
2019-06-20T20:17:38.312Z,99.90
2019-06-20T20:20:05.880Z,99.90
2019-06-20T20:22:38.515Z,99.90
2019-06-20T20:25:06.306Z,99.90
2019-06-20T20:27:33.807Z,99.90
2019-06-20T20:30:00.517Z,99.90
2019-06-20T20:32:28.021Z,99.90
2019-06-20T20:34:55.018Z,99.90
2019-06-20T20:37:22.560Z,99.90
2019-06-20T20:39:49.337Z,99.90
2019-06-20T20:42:17.863Z,99.90
2019-06-20T20:44:42.889Z,99.90
2019-06-20T20:47:09.576Z,99.90
2019-06-20T20:49:36.298Z,99.90
2019-06-20T20:52:03.055Z,99.90
2019-06-20T20:54:30.616Z,99.90
2019-06-20T20:56:57.396Z,99.90
2019-06-20T20:59:24.211Z,99.90
2019-06-20T21:01:50.972Z,99.90
2019-06-20T21:04:18.510Z,99.90
2019-06-20T21:06:45.678Z,99.90
2019-06-20T21:09:12.405Z,99.90
2019-06-20T21:11:39.129Z,99.90
2019-06-20T21:14:05.929Z,99.90
2019-06-20T21:16:32.648Z,99.90
2019-06-20T21:18:59.337Z,99.90
2019-06-20T21:21:26.036Z,99.90
2019-06-20T21:23:52.781Z,99.90
2019-06-20T21:26:20.286Z,99.90
2019-06-20T21:28:47.095Z,99.90
2019-06-20T21:31:17.272Z,99.90
2019-06-20T21:33:44.946Z,99.90
2019-06-20T21:36:14.917Z,99.90
2019-06-20T21:38:43.203Z,99.90
2019-06-20T21:41:09.953Z,99.90
2019-06-20T21:43:36.663Z,99.90
2019-06-20T21:46:06.649Z,99.90
2019-06-20T21:48:31.053Z,99.90
2019-06-20T21:50:57.929Z,99.90
2019-06-20T21:53:25.565Z,99.90
2019-06-20T21:55:54.654Z,99.90
2019-06-20T21:58:23.738Z,99.90
2019-06-20T22:00:51.442Z,99.90
2019-06-20T22:03:18.229Z,99.90
2019-06-20T22:05:45.322Z,99.90
2019-06-20T22:08:16.436Z,99.90
2019-06-20T22:10:43.418Z,99.90
2019-06-20T22:13:13.378Z,99.90
2019-06-20T22:18:21.086Z,99.90
2019-06-20T22:20:48.525Z,99.90
2019-06-20T22:23:16.135Z,99.90
2019-06-20T22:25:45.429Z,99.90
2019-06-20T22:28:13.483Z,99.90
2019-06-20T22:30:46.822Z,99.90
2019-06-20T22:33:15.004Z,99.90
2019-06-20T22:35:45.823Z,99.90
2019-06-20T22:38:12.374Z,99.90
2019-06-20T22:40:41.393Z,99.90
2019-06-20T22:43:15.367Z,99.90
2019-06-20T22:45:49.355Z,99.90
2019-06-20T22:48:19.447Z,99.90
2019-06-20T22:50:49.572Z,99.90
2019-06-20T22:53:17.365Z,99.90
2019-06-20T22:55:44.181Z,99.90
2019-06-20T22:58:11.813Z,99.90
2019-06-20T23:00:38.600Z,99.90
2019-06-20T23:03:05.338Z,99.90
2019-06-20T23:05:32.913Z,99.90
2019-06-20T23:08:00.388Z,99.90
2019-06-20T23:10:27.874Z,99.90
2019-06-20T23:12:54.743Z,99.90
2019-06-20T23:15:21.508Z,99.90
2019-06-20T23:17:48.189Z,99.90
2019-06-20T23:20:15.712Z,99.90
2019-06-20T23:22:43.193Z,99.90
2019-06-20T23:25:10.690Z,99.90
2019-06-20T23:27:37.523Z,99.90
2019-06-20T23:30:07.036Z,99.90
2019-06-20T23:32:33.757Z,99.90
2019-06-20T23:35:00.551Z,99.90
2019-06-20T23:37:27.269Z,99.90
2019-06-20T23:39:53.954Z,99.90
2019-06-20T23:42:21.411Z,99.90
2019-06-20T23:44:48.821Z,99.90
2019-06-20T23:47:15.621Z,99.90
2019-06-20T23:49:43.032Z,99.90
2019-06-20T23:52:12.672Z,99.90
2019-06-20T23:54:40.193Z,99.90
2019-06-20T23:57:06.942Z,99.90
2019-06-20T23:59:33.715Z,99.90
